Time;durP1;ratioP1;P1;durP2;ratioP2;P2;SDS_P1;SDS_P2;PMS_P1;PMS_P2;Temp;Humidity;BMP_temperature;BMP_pressure;BME280_temperature;BME280_humidity;BME280_pressure;Samples;Min_cycle;Max_cycle;Signal;HPM_P1;HPM_P2
2024/04/19 00:01:15;;;;;;;4.47;2.10;;;13.00;71.20;;;;;;5473781;26;20014;-40
2024/04/19 00:03:41;;;;;;;3.40;2.15;;;13.00;71.80;;;;;;5472778;26;20002;-40
2024/04/19 00:06:06;;;;;;;2.42;1.98;;;13.00;71.20;;;;;;5468898;26;20022;-39
2024/04/19 00:08:33;;;;;;;3.42;2.20;;;13.00;71.20;;;;;;5471558;26;20003;-40
2024/04/19 00:10:59;;;;;;;3.33;2.15;;;13.00;71.20;;;;;;5487020;26;20008;-40
2024/04/19 00:13:27;;;;;;;3.70;2.30;;;12.90;71.20;;;;;;5472563;26;20006;-40
2024/04/19 00:15:56;;;;;;;5.28;2.17;;;12.90;71.30;;;;;;5465868;26;20110;-41
2024/04/19 00:18:23;;;;;;;4.72;2.50;;;12.90;71.30;;;;;;5474607;26;20070;-40
2024/04/19 00:20:48;;;;;;;3.50;2.45;;;12.90;71.30;;;;;;5479929;26;20022;-40
2024/04/19 00:23:14;;;;;;;4.43;2.40;;;12.90;71.40;;;;;;5484007;26;20009;-40
2024/04/19 00:25:41;;;;;;;3.72;2.30;;;12.90;71.40;;;;;;5476189;26;20016;-40
2024/04/19 00:28:06;;;;;;;4.68;2.58;;;12.90;71.40;;;;;;5468257;26;20006;-40
2024/04/19 00:30:33;;;;;;;3.65;2.50;;;12.90;71.40;;;;;;5481240;26;20053;-40
2024/04/19 00:32:59;;;;;;;4.28;2.60;;;12.90;71.40;;;;;;5471137;26;20325;-40
2024/04/19 00:35:25;;;;;;;4.20;2.80;;;12.80;71.40;;;;;;5457993;26;20027;-40
2024/04/19 00:37:50;;;;;;;3.45;2.60;;;12.80;71.50;;;;;;5487157;26;19995;-40
2024/04/19 00:40:32;;;;;;;3.83;2.55;;;12.80;71.50;;;;;;5457344;26;19999;-39
2024/04/19 00:42:58;;;;;;;4.63;2.63;;;12.80;71.50;;;;;;5463042;26;20008;-40
2024/04/19 00:45:32;;;;;;;3.47;2.78;;;12.80;71.60;;;;;;5472783;26;19998;-40
2024/04/19 00:47:59;;;;;;;3.85;2.60;;;12.80;71.60;;;;;;5480255;26;20023;-40
2024/04/19 00:50:47;;;;;;;4.35;2.65;;;12.80;71.70;;;;;;5455461;26;20011;-40
2024/04/19 00:53:21;;;;;;;4.22;2.53;;;12.70;71.60;;;;;;5473871;26;19998;-40
2024/04/19 00:55:47;;;;;;;2.78;2.00;;;12.70;71.70;;;;;;5455241;26;20007;-40
2024/04/19 00:58:13;;;;;;;4.00;2.53;;;12.70;71.70;;;;;;5461268;26;20388;-40
2024/04/19 01:00:39;;;;;;;3.40;2.47;;;12.70;71.70;;;;;;5455754;26;20003;-40
2024/04/19 01:03:05;;;;;;;3.60;2.70;;;12.70;71.80;;;;;;5466709;26;20026;-40
2024/04/19 01:05:31;;;;;;;3.80;2.50;;;12.70;71.80;;;;;;5465167;26;19998;-40
2024/04/19 01:07:58;;;;;;;4.82;2.90;;;12.70;71.80;;;;;;5467176;26;20029;-41
2024/04/19 01:10:24;;;;;;;3.85;2.63;;;12.60;71.80;;;;;;5458790;26;21475;-40
2024/04/19 01:12:50;;;;;;;3.70;2.80;;;12.60;71.80;;;;;;5465985;26;20008;-40
2024/04/19 01:15:23;;;;;;;4.05;2.80;;;12.60;71.80;;;;;;5481136;26;20078;-40
2024/04/19 01:17:49;;;;;;;4.32;2.83;;;12.60;71.80;;;;;;5476253;26;19995;-40
2024/04/19 01:20:15;;;;;;;5.20;2.83;;;12.60;71.90;;;;;;5454839;26;20034;-40
2024/04/19 01:22:42;;;;;;;3.65;2.67;;;12.60;71.90;;;;;;5472009;26;20009;-40
2024/04/19 01:25:35;;;;;;;4.15;2.80;;;12.60;71.90;;;;;;5458668;26;19999;-40
2024/04/19 01:28:05;;;;;;;4.65;2.97;;;12.60;72.00;;;;;;5481652;26;20047;-40
2024/04/19 01:30:31;;;;;;;3.70;2.60;;;12.60;72.00;;;;;;5477155;26;20021;-40
2024/04/19 01:32:56;;;;;;;4.00;2.88;;;12.50;72.00;;;;;;5465373;26;20048;-40
2024/04/19 01:35:22;;;;;;;4.55;2.92;;;12.50;72.00;;;;;;5473389;26;19999;-39
2024/04/19 01:37:49;;;;;;;3.67;2.80;;;12.50;72.00;;;;;;5484955;26;20584;-40
2024/04/19 01:40:15;;;;;;;3.97;2.88;;;12.50;72.00;;;;;;5463146;26;20002;-40
2024/04/19 01:42:41;;;;;;;3.45;2.72;;;12.50;72.10;;;;;;5465761;26;19995;-40
2024/04/19 01:45:06;;;;;;;3.25;2.70;;;12.50;72.10;;;;;;5460321;26;20001;-39
2024/04/19 01:47:32;;;;;;;3.95;2.97;;;12.50;72.10;;;;;;5460912;26;20009;-41
2024/04/19 01:49:58;;;;;;;3.92;2.80;;;12.50;72.10;;;;;;5455267;26;20006;-40
2024/04/19 01:52:24;;;;;;;3.50;2.58;;;12.50;72.10;;;;;;5479261;26;20030;-39
2024/04/19 01:54:50;;;;;;;3.17;2.58;;;12.50;72.10;;;;;;5480277;26;20010;-40
2024/04/19 01:57:15;;;;;;;3.95;2.75;;;12.40;72.10;;;;;;5462658;26;20002;-39
2024/04/19 01:59:41;;;;;;;4.15;2.90;;;12.40;72.10;;;;;;5469799;26;19999;-40
2024/04/19 02:02:07;;;;;;;5.32;3.13;;;12.40;72.10;;;;;;5454278;26;20099;-40
2024/04/19 02:04:33;;;;;;;4.75;2.90;;;12.40;72.10;;;;;;5464705;26;20010;-40
2024/04/19 02:06:59;;;;;;;3.70;2.63;;;12.40;72.20;;;;;;5490573;26;20449;-40
2024/04/19 02:09:37;;;;;;;3.50;2.63;;;12.40;72.20;;;;;;5469312;26;19999;-40
2024/04/19 02:12:03;;;;;;;4.90;2.67;;;12.40;72.20;;;;;;5462351;26;19998;-39
2024/04/19 02:14:30;;;;;;;3.60;2.80;;;12.40;72.20;;;;;;5461933;26;20014;-40
2024/04/19 02:16:57;;;;;;;4.28;2.70;;;12.40;72.20;;;;;;5469499;26;20048;-39
2024/04/19 02:19:24;;;;;;;4.80;3.10;;;12.40;72.90;;;;;;5484710;26;20026;-41
2024/04/19 02:21:50;;;;;;;4.32;2.95;;;12.40;72.20;;;;;;5475206;26;19998;-39
2024/04/19 02:24:16;;;;;;;3.92;2.80;;;12.40;72.20;;;;;;5476350;26;20014;-40
2024/04/19 02:26:41;;;;;;;4.90;2.85;;;12.40;72.30;;;;;;5469642;26;20363;-40
2024/04/19 02:31:52;;;;;;;4.15;3.00;;;12.30;72.20;;;;;;5488396;26;20002;-39
2024/04/19 02:34:18;;;;;;;4.57;2.80;;;12.30;72.20;;;;;;5473123;26;20018;-39
2024/04/19 02:36:43;;;;;;;4.53;2.83;;;12.30;72.20;;;;;;5480877;26;20004;-40
2024/04/19 02:39:11;;;;;;;3.97;2.92;;;12.30;72.20;;;;;;5470207;26;20021;-39
2024/04/19 02:41:37;;;;;;;5.35;2.95;;;12.30;72.30;;;;;;5479791;26;19991;-39
2024/04/19 02:44:03;;;;;;;4.75;3.05;;;12.30;72.30;;;;;;5478418;26;20448;-39
2024/04/19 02:46:29;;;;;;;3.70;3.00;;;12.30;72.30;;;;;;5473395;26;20011;-41
2024/04/19 02:48:55;;;;;;;4.13;2.80;;;12.30;72.30;;;;;;5476407;26;20464;-40
2024/04/19 02:51:20;;;;;;;4.22;2.80;;;12.30;72.30;;;;;;5473436;26;20003;-39
2024/04/19 02:53:47;;;;;;;3.63;2.60;;;12.30;72.30;;;;;;5482679;26;20598;-39
2024/04/19 02:56:13;;;;;;;3.67;2.60;;;12.30;72.30;;;;;;5477250;26;20022;-39
2024/04/19 02:58:40;;;;;;;3.55;2.50;;;12.30;72.30;;;;;;5467029;26;20003;-39
2024/04/19 03:01:05;;;;;;;4.78;3.00;;;12.30;72.30;;;;;;5461006;26;19999;-39
2024/04/19 03:03:31;;;;;;;5.07;2.90;;;12.30;72.30;;;;;;5480102;26;19998;-40
2024/04/19 03:05:57;;;;;;;2.80;2.35;;;12.30;72.30;;;;;;5471509;26;20370;-39
2024/04/19 03:08:23;;;;;;;4.13;2.70;;;12.30;72.30;;;;;;5456349;26;20002;-39
2024/04/19 03:10:49;;;;;;;3.75;2.92;;;12.30;72.40;;;;;;5458958;26;20013;-39
2024/04/19 03:13:15;;;;;;;3.90;2.42;;;12.30;72.40;;;;;;5466637;26;20001;-39
2024/04/19 03:15:41;;;;;;;4.35;2.80;;;12.30;72.40;;;;;;5475078;26;20002;-39
2024/04/19 03:18:26;;;;;;;3.63;2.80;;;12.30;72.40;;;;;;5459651;26;20454;-39
2024/04/19 03:21:00;;;;;;;4.57;2.70;;;12.20;72.40;;;;;;5462375;26;20056;-39
2024/04/19 03:23:30;;;;;;;3.38;2.47;;;12.30;72.50;;;;;;5470595;26;19998;-39
2024/04/19 03:26:03;;;;;;;2.90;2.50;;;12.20;72.40;;;;;;5468001;26;20013;-40
2024/04/19 03:28:29;;;;;;;3.60;2.57;;;12.30;72.50;;;;;;5457288;26;20450;-39
2024/04/19 03:30:55;;;;;;;4.18;2.58;;;12.20;72.40;;;;;;5470591;26;20002;-39
2024/04/19 03:33:21;;;;;;;3.70;2.60;;;12.20;72.40;;;;;;5485546;26;20006;-39
2024/04/19 03:35:47;;;;;;;3.33;2.63;;;12.20;72.50;;;;;;5478958;26;20075;-39
2024/04/19 03:38:14;;;;;;;3.20;2.45;;;12.20;72.50;;;;;;5481642;26;19998;-39
2024/04/19 03:41:00;;;;;;;3.30;2.45;;;12.20;72.50;;;;;;5471713;26;20012;-39
2024/04/19 03:43:32;;;;;;;3.55;2.70;;;12.20;72.50;;;;;;5463881;26;19998;-39
2024/04/19 03:45:59;;;;;;;3.60;2.60;;;12.20;72.50;;;;;;5478979;26;20063;-39
2024/04/19 03:48:26;;;;;;;3.67;2.50;;;12.20;72.50;;;;;;5466126;26;20013;-39
2024/04/19 03:50:51;;;;;;;2.95;2.25;;;12.20;72.50;;;;;;5478601;26;19991;-40
2024/04/19 03:53:17;;;;;;;3.22;2.50;;;12.20;72.50;;;;;;5480100;26;20039;-38
2024/04/19 03:55:43;;;;;;;3.35;2.63;;;12.20;72.60;;;;;;5490219;26;20503;-39
2024/04/19 03:58:09;;;;;;;4.32;2.50;;;12.20;72.60;;;;;;5448672;26;20002;-40
2024/04/19 04:00:41;;;;;;;3.35;2.63;;;12.20;72.60;;;;;;5474634;26;20438;-39
2024/04/19 04:03:07;;;;;;;3.35;2.58;;;12.20;72.60;;;;;;5467542;26;19998;-40
2024/04/19 04:05:38;;;;;;;3.85;2.72;;;12.20;72.60;;;;;;5479805;26;19998;-40
2024/04/19 04:08:04;;;;;;;3.35;2.63;;;12.20;72.60;;;;;;5473335;26;20009;-41
2024/04/19 04:10:30;;;;;;;2.88;2.33;;;12.20;72.60;;;;;;5470315;26;20002;-40
2024/04/19 04:12:56;;;;;;;3.08;2.42;;;12.20;72.70;;;;;;5475728;26;20021;-40
2024/04/19 04:15:22;;;;;;;2.92;2.47;;;12.10;72.60;;;;;;5471093;26;20039;-40
2024/04/19 04:17:48;;;;;;;3.08;2.60;;;12.20;72.70;;;;;;5468033;26;20006;-40
2024/04/19 04:20:14;;;;;;;3.15;2.60;;;12.20;72.70;;;;;;5475152;26;20013;-42
2024/04/19 04:22:39;;;;;;;3.13;2.65;;;12.10;72.60;;;;;;5473451;26;20552;-40
2024/04/19 04:25:05;;;;;;;3.03;2.72;;;12.10;72.70;;;;;;5475790;26;19999;-40
2024/04/19 04:27:31;;;;;;;3.67;2.85;;;12.10;72.70;;;;;;5468613;26;20013;-39
2024/04/19 04:29:57;;;;;;;3.88;2.85;;;12.10;72.70;;;;;;5460160;26;20005;-39
2024/04/19 04:32:22;;;;;;;3.28;2.88;;;12.10;72.70;;;;;;5463446;26;19994;-39
2024/04/19 04:34:48;;;;;;;3.38;2.88;;;12.10;72.70;;;;;;5451346;26;20003;-39
2024/04/19 04:37:14;;;;;;;3.35;2.90;;;12.10;72.70;;;;;;5479819;26;19998;-40
2024/04/19 04:39:40;;;;;;;4.18;3.10;;;12.10;72.80;;;;;;5467493;26;20466;-40
2024/04/19 04:42:06;;;;;;;3.45;2.90;;;12.10;72.80;;;;;;5475998;26;20006;-40
2024/04/19 04:44:34;;;;;;;3.92;2.97;;;12.10;72.80;;;;;;5500007;26;20015;-40
2024/04/19 04:47:00;;;;;;;3.22;2.80;;;12.10;72.80;;;;;;5479511;26;20013;-40
2024/04/19 04:49:26;;;;;;;3.80;2.90;;;12.10;72.80;;;;;;5467734;26;19991;-40
2024/04/19 04:51:51;;;;;;;3.25;2.95;;;12.10;72.80;;;;;;5470644;26;20063;-40
2024/04/19 04:54:17;;;;;;;3.58;2.60;;;12.10;72.80;;;;;;5474726;26;20008;-40
2024/04/19 04:56:43;;;;;;;2.90;2.60;;;12.10;72.90;;;;;;5482326;26;20382;-40
2024/04/19 04:59:09;;;;;;;3.10;2.75;;;12.10;72.90;;;;;;5471313;26;20010;-40
2024/04/19 05:01:35;;;;;;;2.72;2.38;;;12.10;72.90;;;;;;5486759;26;20013;-40
2024/04/19 05:04:00;;;;;;;2.80;2.33;;;12.10;72.90;;;;;;5486116;26;20009;-40
2024/04/19 05:06:26;;;;;;;3.10;2.58;;;12.10;73.00;;;;;;5466205;26;20007;-40
2024/04/19 05:08:52;;;;;;;3.83;2.67;;;12.10;73.00;;;;;;5475827;26;19994;-39
2024/04/19 05:11:17;;;;;;;2.95;2.30;;;12.00;72.90;;;;;;5462228;26;20048;-40
2024/04/19 05:13:43;;;;;;;2.70;2.50;;;12.00;73.00;;;;;;5472058;26;20033;-41
2024/04/19 05:16:09;;;;;;;3.25;2.63;;;12.00;73.00;;;;;;5463155;26;20099;-41
2024/04/19 05:18:35;;;;;;;2.58;2.30;;;12.00;73.00;;;;;;5458913;26;19999;-41
2024/04/19 05:21:00;;;;;;;2.50;2.30;;;12.00;73.00;;;;;;5488033;26;20163;-42
2024/04/19 05:23:26;;;;;;;2.60;2.40;;;12.00;73.10;;;;;;5446479;26;19998;-41
2024/04/19 05:25:52;;;;;;;3.70;2.80;;;12.00;73.00;;;;;;5485311;26;20013;-40
2024/04/19 05:28:18;;;;;;;2.53;2.30;;;12.00;73.00;;;;;;5486533;26;20002;-42
2024/04/19 05:30:44;;;;;;;2.58;2.30;;;12.10;73.10;;;;;;5468063;26;20052;-41
2024/04/19 05:33:10;;;;;;;2.72;2.40;;;12.00;73.10;;;;;;5485549;26;20009;-40
2024/04/19 05:35:36;;;;;;;2.28;2.05;;;12.00;73.10;;;;;;5466826;26;19992;-42
2024/04/19 05:38:01;;;;;;;2.38;2.17;;;12.00;73.10;;;;;;5483425;26;20010;-41
2024/04/19 05:40:27;;;;;;;2.47;2.20;;;12.10;73.20;;;;;;5463801;26;20478;-40
2024/04/19 05:42:53;;;;;;;2.63;2.25;;;12.00;73.10;;;;;;5440503;26;20015;-42
2024/04/19 05:45:20;;;;;;;3.47;2.33;;;12.00;73.20;;;;;;5476223;26;20440;-41
2024/04/19 05:47:46;;;;;;;2.50;2.30;;;12.00;73.20;;;;;;5475831;26;20003;-42
2024/04/19 05:50:12;;;;;;;2.88;2.38;;;12.10;73.30;;;;;;5481565;26;20041;-42
2024/04/19 05:52:39;;;;;;;2.50;2.10;;;12.00;73.20;;;;;;5468544;26;20350;-41
2024/04/19 05:55:06;;;;;;;2.30;2.10;;;12.10;73.30;;;;;;5469855;26;20011;-42
2024/04/19 05:57:32;;;;;;;2.30;2.10;;;12.10;73.30;;;;;;5459488;26;19994;-42
2024/04/19 05:59:58;;;;;;;2.60;2.28;;;12.10;73.30;;;;;;5474328;26;20018;-42
2024/04/19 06:02:23;;;;;;;2.38;2.17;;;12.10;73.30;;;;;;5475010;26;19999;-42
2024/04/19 06:04:49;;;;;;;2.67;2.22;;;12.10;73.30;;;;;;5484746;26;20075;-41
2024/04/19 06:07:16;;;;;;;3.50;2.42;;;12.10;73.30;;;;;;5482181;26;20010;-44
2024/04/19 06:09:42;;;;;;;3.55;2.42;;;12.10;73.30;;;;;;5489324;26;20016;-42
2024/04/19 06:12:08;;;;;;;2.55;2.35;;;12.10;73.30;;;;;;5480108;26;19998;-42
2024/04/19 06:14:34;;;;;;;2.63;2.40;;;12.10;73.40;;;;;;5480043;26;20007;-43
2024/04/19 06:16:59;;;;;;;2.80;2.50;;;12.10;73.40;;;;;;5466088;26;20002;-43
2024/04/19 06:19:25;;;;;;;2.88;2.50;;;12.10;73.40;;;;;;5469792;26;20027;-42
2024/04/19 06:21:51;;;;;;;2.40;2.20;;;12.10;73.40;;;;;;5469111;26;20003;-43
2024/04/19 06:24:17;;;;;;;3.30;2.38;;;12.10;73.40;;;;;;5476753;26;20173;-43
2024/04/19 06:26:43;;;;;;;2.60;2.20;;;12.10;73.40;;;;;;5467917;26;20024;-42
2024/04/19 06:29:09;;;;;;;2.25;2.05;;;12.10;73.40;;;;;;5471529;26;20011;-43
2024/04/19 06:31:34;;;;;;;4.57;2.50;;;12.10;73.40;;;;;;5454181;26;19998;-44
2024/04/19 06:34:00;;;;;;;4.15;2.80;;;12.10;73.40;;;;;;5470016;26;20021;-43
2024/04/19 06:36:26;;;;;;;2.70;2.20;;;12.10;73.50;;;;;;5464314;26;20066;-42
2024/04/19 06:38:52;;;;;;;2.25;2.05;;;12.10;73.50;;;;;;5457186;26;20071;-44
2024/04/19 06:41:18;;;;;;;3.63;2.50;;;12.10;73.50;;;;;;5436980;26;20013;-42
2024/04/19 06:43:44;;;;;;;3.00;2.30;;;12.20;73.50;;;;;;5483863;26;19998;-43
2024/04/19 06:46:09;;;;;;;2.80;2.50;;;12.20;73.50;;;;;;5470177;26;20458;-42
2024/04/19 06:48:35;;;;;;;3.72;2.30;;;12.20;73.50;;;;;;5456105;26;19999;-45
2024/04/19 06:51:01;;;;;;;3.53;2.40;;;12.20;73.50;;;;;;5456745;26;19999;-44
2024/04/19 06:53:27;;;;;;;3.83;2.17;;;12.20;73.50;;;;;;5461670;26;19991;-43
2024/04/19 06:55:52;;;;;;;3.10;2.33;;;12.20;73.50;;;;;;5481062;26;20076;-42
2024/04/19 06:58:18;;;;;;;3.00;2.08;;;12.20;73.60;;;;;;5480445;26;20006;-43
2024/04/19 07:00:44;;;;;;;3.67;2.42;;;12.20;73.60;;;;;;5472298;26;20561;-43
2024/04/19 07:03:10;;;;;;;3.53;2.22;;;12.30;73.70;;;;;;5478641;26;19994;-41
2024/04/19 07:05:36;;;;;;;3.20;2.20;;;12.30;73.70;;;;;;5465382;26;19994;-43
2024/04/19 07:08:02;;;;;;;3.20;2.30;;;12.30;73.60;;;;;;5463945;26;19999;-43
2024/04/19 07:10:28;;;;;;;3.85;2.00;;;12.30;73.60;;;;;;5468383;26;19994;-46
2024/04/19 07:12:53;;;;;;;3.30;2.20;;;12.40;73.70;;;;;;5473923;26;19999;-44
2024/04/19 07:15:19;;;;;;;3.22;2.40;;;12.40;73.60;;;;;;5467649;26;19995;-43
2024/04/19 07:17:49;;;;;;;3.08;2.00;;;12.40;73.60;;;;;;5462887;26;20003;-43
2024/04/19 07:20:15;;;;;;;3.20;2.20;;;12.40;73.60;;;;;;5485943;26;20041;-42
2024/04/19 07:22:41;;;;;;;4.10;2.17;;;12.40;73.60;;;;;;5488448;26;19998;-39
2024/04/19 07:25:07;;;;;;;4.43;2.15;;;12.40;73.60;;;;;;5487890;26;19998;-39
2024/04/19 07:27:32;;;;;;;5.07;2.30;;;12.40;73.60;;;;;;5469086;26;20458;-40
2024/04/19 07:29:58;;;;;;;5.63;2.10;;;12.50;73.60;;;;;;5470132;26;20010;-40
2024/04/19 07:32:24;;;;;;;2.35;1.90;;;12.50;73.60;;;;;;5481438;26;20005;-40
2024/04/19 07:34:49;;;;;;;2.75;2.08;;;12.50;73.60;;;;;;5485684;26;20487;-39
2024/04/19 07:37:15;;;;;;;3.65;2.08;;;12.60;73.60;;;;;;5485808;26;20310;-40
2024/04/19 07:39:41;;;;;;;2.42;1.88;;;12.60;73.60;;;;;;5465141;26;20006;-40
2024/04/19 07:42:07;;;;;;;3.33;1.90;;;12.60;73.60;;;;;;5488749;26;20001;-40
2024/04/19 07:44:32;;;;;;;3.83;2.08;;;12.60;73.60;;;;;;5477640;26;20006;-40
2024/04/19 07:46:58;;;;;;;3.50;1.92;;;12.60;73.60;;;;;;5458120;26;20013;-40
2024/04/19 07:49:24;;;;;;;3.45;2.00;;;12.70;73.60;;;;;;5481487;26;20008;-40
2024/04/19 07:51:50;;;;;;;2.65;1.95;;;12.70;73.60;;;;;;5469395;26;19999;-40
2024/04/19 07:54:15;;;;;;;3.22;1.77;;;12.70;73.60;;;;;;5462390;26;20724;-40
2024/04/19 07:56:46;;;;;;;3.15;1.83;;;12.70;73.60;;;;;;5482826;26;20430;-38
2024/04/19 07:59:12;;;;;;;4.05;2.05;;;12.70;73.60;;;;;;5484853;26;20034;-39
2024/04/19 08:01:38;;;;;;;3.20;2.17;;;12.70;73.60;;;;;;5459129;26;20010;-38
2024/04/19 08:04:04;;;;;;;4.70;2.00;;;12.80;73.60;;;;;;5472253;26;20013;-39
2024/04/19 08:06:29;;;;;;;3.78;2.10;;;12.80;73.60;;;;;;5475272;26;20052;-39
2024/04/19 08:08:55;;;;;;;4.30;2.00;;;12.80;73.60;;;;;;5476731;26;19999;-39
2024/04/19 08:11:21;;;;;;;4.32;2.10;;;12.80;73.50;;;;;;5479953;26;20014;-39
2024/04/19 08:13:47;;;;;;;2.95;1.77;;;12.90;73.60;;;;;;5463297;26;19998;-39
2024/04/19 08:16:13;;;;;;;4.30;2.25;;;12.90;73.60;;;;;;5466282;26;20005;-40
2024/04/19 08:18:40;;;;;;;4.13;1.98;;;12.90;73.60;;;;;;5491597;26;20002;-40
2024/04/19 08:21:06;;;;;;;3.10;1.73;;;12.90;73.60;;;;;;5489526;26;20004;-39
2024/04/19 08:23:31;;;;;;;3.45;1.80;;;12.90;73.50;;;;;;5484431;26;19994;-39
2024/04/19 08:25:58;;;;;;;3.70;1.77;;;13.00;73.60;;;;;;5484518;26;20022;-39
2024/04/19 08:28:25;;;;;;;3.47;1.70;;;12.90;73.60;;;;;;5457101;26;20010;-39
2024/04/19 08:30:55;;;;;;;3.22;1.60;;;13.00;74.20;;;;;;5465013;26;20403;-39
2024/04/19 08:33:21;;;;;;;3.20;1.73;;;13.00;73.60;;;;;;5484004;26;20012;-39
2024/04/19 08:35:57;;;;;;;2.42;1.60;;;13.00;73.60;;;;;;5474443;26;19999;-39
2024/04/19 08:38:24;;;;;;;3.08;1.83;;;13.00;73.60;;;;;;5454923;26;20020;-38
2024/04/19 08:41:02;;;;;;;2.70;1.80;;;13.00;73.60;;;;;;5477191;26;19998;-39
2024/04/19 08:43:36;;;;;;;2.13;1.42;;;13.10;73.60;;;;;;5456880;26;20003;-39
2024/04/19 08:46:03;;;;;;;3.65;1.77;;;13.10;73.60;;;;;;5457030;26;20007;-39
2024/04/19 08:48:29;;;;;;;3.85;1.60;;;13.10;73.60;;;;;;5478934;26;20013;-39
2024/04/19 08:50:59;;;;;;;3.50;1.77;;;13.10;73.60;;;;;;5457931;26;20526;-38
2024/04/19 08:53:26;;;;;;;2.90;1.52;;;13.10;73.60;;;;;;5481646;26;20002;-39
2024/04/19 08:55:52;;;;;;;3.72;2.10;;;13.10;73.60;;;;;;5462993;26;20017;-39
2024/04/19 08:58:18;;;;;;;2.80;1.67;;;13.10;74.20;;;;;;5453150;26;20013;-39
2024/04/19 09:00:45;;;;;;;3.25;1.63;;;13.10;73.60;;;;;;5465393;26;20021;-40
2024/04/19 09:03:11;;;;;;;3.60;1.60;;;13.10;73.60;;;;;;5485165;26;19998;-39
2024/04/19 09:05:37;;;;;;;3.00;1.55;;;13.10;73.60;;;;;;5464456;26;20009;-39
2024/04/19 09:08:05;;;;;;;2.78;1.58;;;13.20;73.70;;;;;;5473475;26;19999;-40
2024/04/19 09:10:31;;;;;;;2.47;1.63;;;13.20;73.70;;;;;;5459894;26;20003;-39
2024/04/19 09:12:57;;;;;;;2.72;1.60;;;13.20;73.70;;;;;;5471084;26;20125;-39
2024/04/19 09:15:27;;;;;;;2.08;1.40;;;13.20;73.60;;;;;;5493986;26;19994;-42
2024/04/19 09:17:53;;;;;;;1.35;1.20;;;13.20;73.70;;;;;;5484914;26;19995;-40
2024/04/19 09:20:20;;;;;;;2.28;1.30;;;13.20;73.70;;;;;;5476753;26;20002;-39
2024/04/19 09:22:46;;;;;;;1.30;1.10;;;13.20;73.60;;;;;;5488183;26;19995;-39
2024/04/19 09:25:13;;;;;;;1.98;1.20;;;13.30;73.70;;;;;;5478338;26;20025;-39
2024/04/19 09:27:39;;;;;;;2.78;1.35;;;13.30;73.70;;;;;;5460137;26;20332;-38
2024/04/19 09:30:07;;;;;;;2.05;1.45;;;13.30;73.70;;;;;;5468162;26;20017;-38
2024/04/19 09:32:33;;;;;;;1.13;1.02;;;13.30;73.60;;;;;;5474816;26;20320;-38
2024/04/19 09:34:59;;;;;;;3.08;1.30;;;13.30;73.60;;;;;;5483549;26;20013;-39
2024/04/19 09:37:28;;;;;;;1.30;1.10;;;13.40;73.60;;;;;;5474389;26;20006;-38
2024/04/19 09:39:54;;;;;;;1.63;1.25;;;13.40;73.60;;;;;;5466632;26;20023;-39
2024/04/19 09:42:22;;;;;;;2.00;1.40;;;13.40;73.60;;;;;;5458055;26;19995;-38
2024/04/19 09:44:50;;;;;;;2.40;1.40;;;13.40;73.60;;;;;;5483091;26;20369;-39
2024/04/19 09:47:17;;;;;;;1.70;1.23;;;13.50;73.60;;;;;;5479929;26;20009;-38
2024/04/19 09:49:46;;;;;;;1.67;1.10;;;13.50;73.60;;;;;;5460440;26;20010;-39
2024/04/19 09:52:22;;;;;;;2.30;1.27;;;13.50;73.60;;;;;;5458194;26;19995;-39
2024/04/19 09:55:09;;;;;;;1.60;1.30;;;13.50;73.60;;;;;;5459082;26;20044;-40
2024/04/19 09:57:35;;;;;;;1.40;1.17;;;13.50;73.60;;;;;;5480598;26;20017;-39
2024/04/19 10:00:03;;;;;;;1.95;1.38;;;13.60;73.60;;;;;;5479568;26;20017;-40
2024/04/19 10:02:38;;;;;;;2.05;1.25;;;13.60;73.60;;;;;;5484506;26;20018;-39
2024/04/19 10:05:04;;;;;;;1.50;0.95;;;13.60;73.60;;;;;;5460771;26;20032;-40
2024/04/19 10:07:32;;;;;;;1.33;1.13;;;13.60;73.60;;;;;;5464169;26;20010;-40
2024/04/19 10:09:58;;;;;;;1.45;1.20;;;13.70;73.60;;;;;;5480095;26;20047;-40
2024/04/19 10:12:24;;;;;;;1.98;1.08;;;13.70;73.60;;;;;;5465835;26;20426;-40
2024/04/19 10:14:50;;;;;;;1.00;0.90;;;13.70;73.50;;;;;;5479723;26;19999;-39
2024/04/19 10:17:16;;;;;;;1.45;1.15;;;13.70;73.50;;;;;;5455706;26;20403;-40
2024/04/19 10:19:43;;;;;;;1.33;1.20;;;13.80;73.50;;;;;;5450898;26;20003;-40
2024/04/19 10:22:09;;;;;;;1.13;1.10;;;13.80;73.50;;;;;;5476920;26;20311;-40
2024/04/19 10:24:35;;;;;;;1.20;1.10;;;13.80;73.40;;;;;;5469391;26;19998;-39
2024/04/19 10:27:03;;;;;;;1.48;1.17;;;13.90;73.50;;;;;;5476017;26;20468;-39
2024/04/19 10:29:29;;;;;;;1.67;1.10;;;13.90;73.50;;;;;;5483043;26;19998;-39
2024/04/19 10:31:55;;;;;;;1.58;1.00;;;13.90;73.40;;;;;;5493073;26;20038;-39
2024/04/19 10:34:22;;;;;;;1.50;0.90;;;14.00;73.40;;;;;;5482485;26;19994;-39
2024/04/19 10:36:51;;;;;;;1.58;0.98;;;14.00;73.40;;;;;;5473570;26;20068;-39
2024/04/19 10:39:18;;;;;;;0.88;0.88;;;14.00;73.40;;;;;;5474059;26;20013;-39
2024/04/19 10:41:53;;;;;;;1.13;1.00;;;14.10;73.40;;;;;;5487548;26;20010;-39
2024/04/19 10:44:19;;;;;;;1.10;1.00;;;14.10;73.40;;;;;;5488870;26;20103;-39
2024/04/19 10:46:47;;;;;;;1.02;1.00;;;14.10;73.30;;;;;;5476823;26;20002;-40
2024/04/19 10:49:15;;;;;;;1.77;1.00;;;14.10;73.30;;;;;;5465962;26;20006;-40
2024/04/19 10:51:42;;;;;;;0.80;0.80;;;14.20;73.40;;;;;;5474212;26;19994;-39
2024/04/19 10:54:08;;;;;;;0.90;0.90;;;14.20;73.40;;;;;;5465699;26;20006;-40
2024/04/19 10:56:37;;;;;;;1.52;1.00;;;14.30;73.40;;;;;;5478646;26;20001;-39
2024/04/19 10:59:02;;;;;;;1.00;0.90;;;14.30;73.40;;;;;;5494427;26;20006;-39
2024/04/19 11:01:29;;;;;;;1.70;1.17;;;14.30;73.40;;;;;;5486299;26;20053;-39
2024/04/19 11:03:55;;;;;;;4.10;1.15;;;14.30;73.40;;;;;;5463444;26;20012;-38
2024/04/19 11:06:21;;;;;;;0.93;0.90;;;14.30;73.40;;;;;;5457706;26;20031;-39
2024/04/19 11:08:46;;;;;;;1.08;1.00;;;14.40;73.40;;;;;;5466827;26;20090;-39
2024/04/19 11:11:12;;;;;;;1.05;0.98;;;14.40;73.30;;;;;;5490902;26;20137;-39
2024/04/19 11:13:38;;;;;;;0.80;0.80;;;14.40;73.20;;;;;;5463833;26;20009;-39
2024/04/19 11:16:04;;;;;;;1.00;0.93;;;14.50;73.20;;;;;;5462366;26;19999;-39
2024/04/19 11:18:30;;;;;;;1.17;1.05;;;14.50;73.30;;;;;;5462376;26;19995;-38
2024/04/19 11:20:56;;;;;;;1.27;0.93;;;14.50;73.20;;;;;;5479240;26;20425;-39
2024/04/19 11:23:23;;;;;;;0.82;0.80;;;14.50;73.20;;;;;;5482427;26;20013;-41
2024/04/19 11:25:48;;;;;;;1.42;1.00;;;14.50;73.20;;;;;;5473614;26;19998;-40
2024/04/19 11:28:15;;;;;;;1.20;1.00;;;14.50;73.20;;;;;;5462947;26;21474;-43
2024/04/19 11:30:40;;;;;;;1.00;0.90;;;14.50;73.20;;;;;;5457455;26;19995;-39
2024/04/19 11:33:08;;;;;;;1.30;0.98;;;14.50;73.20;;;;;;5491083;26;20013;-39
2024/04/19 11:35:41;;;;;;;0.80;0.80;;;14.50;73.20;;;;;;5481017;26;19998;-39
2024/04/19 11:38:14;;;;;;;0.80;0.70;;;14.50;73.20;;;;;;5456581;26;20039;-39
2024/04/19 11:40:41;;;;;;;1.63;1.08;;;14.50;73.30;;;;;;5464184;26;20386;-39
2024/04/19 11:43:07;;;;;;;1.67;0.90;;;14.50;73.30;;;;;;5477425;26;20010;-39
2024/04/19 11:45:32;;;;;;;1.30;1.10;;;14.50;73.40;;;;;;5465324;26;20441;-39
2024/04/19 11:47:59;;;;;;;1.15;1.00;;;14.50;73.40;;;;;;5465176;26;19998;-39
2024/04/19 11:50:25;;;;;;;1.48;1.00;;;14.50;73.40;;;;;;5485101;26;20006;-39
2024/04/19 11:52:51;;;;;;;1.30;0.98;;;14.50;73.40;;;;;;5465875;26;20145;-45
2024/04/19 11:55:20;;;;;;;2.03;1.00;;;14.50;73.40;;;;;;5482155;26;20012;-39
2024/04/19 11:57:45;;;;;;;2.00;1.02;;;14.50;73.40;;;;;;5469067;26;19998;-40
2024/04/19 12:00:12;;;;;;;1.15;1.05;;;14.50;73.40;;;;;;5479232;26;19999;-39
2024/04/19 12:02:38;;;;;;;1.67;1.05;;;14.50;73.40;;;;;;5457867;26;20033;-39
2024/04/19 12:05:04;;;;;;;0.93;0.93;;;14.40;73.40;;;;;;5470784;26;20451;-39
2024/04/19 12:07:30;;;;;;;2.70;1.00;;;14.40;73.40;;;;;;5477913;26;20013;-39
2024/04/19 12:09:56;;;;;;;1.38;1.00;;;14.40;73.40;;;;;;5477096;26;19995;-39
2024/04/19 12:12:25;;;;;;;1.02;0.90;;;14.40;73.30;;;;;;5483958;26;20009;-39
2024/04/19 12:14:51;;;;;;;1.98;1.13;;;14.40;73.40;;;;;;5482143;26;19999;-39
2024/04/19 12:17:17;;;;;;;1.15;0.90;;;14.40;73.40;;;;;;5471916;26;20013;-39
2024/04/19 12:19:43;;;;;;;1.10;1.00;;;14.40;73.40;;;;;;5458072;26;19998;-39
2024/04/19 12:22:08;;;;;;;1.70;1.13;;;14.40;73.50;;;;;;5455956;26;20410;-39
2024/04/19 12:24:34;;;;;;;1.25;1.02;;;14.40;73.50;;;;;;5468343;26;20005;-40
2024/04/19 12:27:04;;;;;;;1.80;1.10;;;14.40;73.50;;;;;;5480863;26;20017;-39
2024/04/19 12:29:34;;;;;;;1.67;1.00;;;14.40;73.50;;;;;;5463871;26;20016;-39
2024/04/19 12:32:00;;;;;;;2.13;1.00;;;14.40;73.60;;;;;;5466281;26;20320;-39
2024/04/19 12:34:26;;;;;;;1.45;1.00;;;14.40;73.60;;;;;;5474087;26;20478;-38
2024/04/19 12:36:53;;;;;;;2.03;0.90;;;14.40;73.60;;;;;;5488639;26;20002;-38
2024/04/19 12:39:19;;;;;;;1.38;0.90;;;14.40;73.60;;;;;;5473367;26;20005;-38
2024/04/19 12:41:45;;;;;;;1.58;0.98;;;14.40;73.60;;;;;;5461002;26;19999;-39
2024/04/19 12:44:11;;;;;;;1.55;0.90;;;14.40;73.50;;;;;;5467432;26;20014;-38
2024/04/19 12:46:39;;;;;;;1.45;1.10;;;14.40;73.60;;;;;;5474545;26;19998;-37
2024/04/19 12:49:06;;;;;;;2.10;1.00;;;14.40;73.50;;;;;;5488095;26;20032;-38